Agate Beach, Oregon
Current Conditions -  °F | °C
As of 8:55 AM on Thursday 30 Oct 2014 (Local Time) from KONP Reporting Station
Broken Clouds Broken Clouds  
Wind Chill: 15°   Ceiling: 3200
Heat Index: 15°   Visibility: 10mi
Dew Point: 13°   Wind: 6mph
Humidity: 88%   Direction: 100°E
Pressure: 29.86"   Gusts: NA
Location:  44.6805°N, 124.021°W
Report Text: KONP 301555Z AUTO 10005KT 10SM BKN032 15/13 A2986 RMK AO2
Loading
Personal Weather Stations






























Interactive Weather Map
Tropical Storm Tracking
New forecast layout! Learn more

10-Day Weather Forecast

Advertisements
Track Severe Weather on mobile